Time;durP1;ratioP1;P1;durP2;ratioP2;P2;SDS_P1;SDS_P2;PMS_P1;PMS_P2;Temp;Humidity;BMP_temperature;BMP_pressure;BME280_temperature;BME280_humidity;BME280_pressure;Samples;Min_cycle;Max_cycle;Signal;HPM_P1;HPM_P2
2022/03/17 00:04:15;;;;;;;31.15;15.70;;;10.40;95.00;;;;;;10005949;28;20149;-62
2022/03/17 00:09:07;;;;;;;35.80;15.40;;;10.40;95.10;;;;;;10008968;28;20050;-61
2022/03/17 00:13:57;;;;;;;31.10;17.35;;;10.30;95.20;;;;;;10000486;28;20556;-61
2022/03/17 00:18:48;;;;;;;32.92;16.05;;;10.30;95.20;;;;;;10014612;28;20042;-61
2022/03/17 00:23:39;;;;;;;33.13;15.73;;;10.20;95.30;;;;;;10009357;28;20034;-62
2022/03/17 00:28:30;;;;;;;33.25;15.55;;;10.20;95.30;;;;;;10008355;28;20058;-63
2022/03/17 00:33:20;;;;;;;29.85;15.90;;;10.20;95.30;;;;;;10006288;28;20569;-62
2022/03/17 00:38:14;;;;;;;31.48;16.48;;;10.20;95.30;;;;;;10013192;28;20030;-62
2022/03/17 00:43:06;;;;;;;30.40;16.23;;;10.30;95.30;;;;;;9991492;28;20068;-61
2022/03/17 00:47:57;;;;;;;34.28;17.63;;;10.30;95.30;;;;;;10000047;28;20041;-62
2022/03/17 00:52:48;;;;;;;32.17;15.93;;;10.30;95.30;;;;;;9993988;28;20106;-61
2022/03/17 00:57:39;;;;;;;33.38;16.10;;;10.20;95.40;;;;;;9998385;28;20057;-62
2022/03/17 01:02:30;;;;;;;32.13;17.08;;;10.30;95.40;;;;;;9999819;28;20042;-62
2022/03/17 01:07:21;;;;;;;31.85;15.73;;;10.30;95.30;;;;;;10010584;28;20092;-61
2022/03/17 01:12:12;;;;;;;32.75;16.65;;;10.20;95.50;;;;;;9998414;28;20105;-62
2022/03/17 01:17:03;;;;;;;32.15;17.08;;;10.20;95.50;;;;;;10004678;28;20145;-61
2022/03/17 01:21:53;;;;;;;32.75;15.70;;;10.30;95.50;;;;;;9994307;28;20018;-61
2022/03/17 01:26:45;;;;;;;33.40;15.93;;;10.40;95.40;;;;;;9982008;28;20523;-61
2022/03/17 01:31:36;;;;;;;30.15;15.90;;;10.40;95.40;;;;;;9997852;28;20428;-62
2022/03/17 01:36:27;;;;;;;30.63;16.55;;;10.20;95.50;;;;;;10007440;28;20030;-62
2022/03/17 01:41:17;;;;;;;30.25;16.95;;;10.20;95.50;;;;;;9998202;28;20113;-62
2022/03/17 01:46:10;;;;;;;31.15;16.45;;;10.20;95.60;;;;;;9984299;28;20168;-62
2022/03/17 01:51:00;;;;;;;28.67;15.68;;;10.30;95.40;;;;;;9982474;28;20128;-61
2022/03/17 01:55:51;;;;;;;32.72;17.05;;;10.30;95.50;;;;;;9998340;28;20533;-61
2022/03/17 02:00:42;;;;;;;27.40;15.43;;;10.30;95.50;;;;;;10008027;28;20042;-61
2022/03/17 02:05:34;;;;;;;28.38;16.33;;;10.30;95.50;;;;;;10005645;28;20041;-61
2022/03/17 02:10:24;;;;;;;33.72;15.55;;;10.30;95.50;;;;;;10002129;28;20370;-63
2022/03/17 02:15:15;;;;;;;30.90;15.52;;;10.30;95.60;;;;;;9997970;28;20054;-61
2022/03/17 02:20:09;;;;;;;28.70;14.73;;;10.20;95.50;;;;;;10003919;28;20022;-62
2022/03/17 02:30:10;;;;;;;34.15;16.17;;;10.10;95.60;;;;;;9997902;28;20111;-63
2022/03/17 02:35:15;;;;;;;23.27;14.40;;;10.20;95.70;;;;;;9998409;28;20124;-62
2022/03/17 02:40:09;;;;;;;30.38;15.95;;;10.20;95.70;;;;;;9997860;28;20515;-64
2022/03/17 02:45:01;;;;;;;29.25;14.18;;;10.20;95.60;;;;;;9990587;28;20039;-62
2022/03/17 02:49:54;;;;;;;26.98;14.68;;;10.20;95.50;;;;;;9992646;28;20058;-62
2022/03/17 02:54:45;;;;;;;27.05;15.10;;;10.30;95.60;;;;;;9995269;28;20121;-63
2022/03/17 02:59:36;;;;;;;28.85;15.00;;;10.30;95.60;;;;;;10010726;28;20113;-62
2022/03/17 03:04:26;;;;;;;31.83;15.52;;;10.30;95.60;;;;;;10003832;28;20042;-63
2022/03/17 03:09:17;;;;;;;29.00;13.93;;;10.30;95.60;;;;;;10016748;28;20037;-62
2022/03/17 03:14:09;;;;;;;32.45;16.60;;;10.20;95.80;;;;;;10002734;28;20611;-63
2022/03/17 03:18:59;;;;;;;28.70;15.02;;;10.20;95.70;;;;;;10001711;28;20116;-62
2022/03/17 03:23:50;;;;;;;28.23;13.77;;;10.10;95.80;;;;;;10007675;28;20121;-61
2022/03/17 03:28:41;;;;;;;29.83;16.88;;;10.20;95.80;;;;;;9998222;28;20172;-61
2022/03/17 03:33:31;;;;;;;29.42;16.33;;;10.30;95.70;;;;;;10012722;28;20026;-62
2022/03/17 03:38:22;;;;;;;24.90;13.95;;;10.30;95.70;;;;;;10015241;28;20420;-61
2022/03/17 03:43:13;;;;;;;35.10;16.45;;;10.10;95.70;;;;;;10000084;28;20026;-61
2022/03/17 03:48:04;;;;;;;26.65;14.75;;;10.20;95.80;;;;;;9985406;28;20116;-62
2022/03/17 03:52:55;;;;;;;31.08;15.73;;;10.20;95.70;;;;;;9981956;28;20475;-63
2022/03/17 03:57:46;;;;;;;32.38;15.90;;;10.10;95.80;;;;;;10008659;28;20026;-62
2022/03/17 04:02:37;;;;;;;30.08;16.58;;;10.20;95.90;;;;;;9999291;28;20088;-62
2022/03/17 04:07:27;;;;;;;32.03;14.73;;;10.30;95.70;;;;;;9998220;28;20050;-61
2022/03/17 04:12:20;;;;;;;29.00;13.68;;;10.30;95.60;;;;;;9996089;28;20027;-62
2022/03/17 04:17:10;;;;;;;29.20;15.07;;;10.40;95.60;;;;;;9991362;28;20137;-61
2022/03/17 04:22:01;;;;;;;28.35;14.65;;;10.40;95.70;;;;;;10002257;28;20112;-62
2022/03/17 04:26:52;;;;;;;29.25;15.30;;;10.30;95.80;;;;;;9989497;28;20037;-61
2022/03/17 04:31:44;;;;;;;28.98;15.23;;;10.30;95.90;;;;;;10000817;28;20349;-62
2022/03/17 04:36:36;;;;;;;29.42;15.85;;;10.30;95.80;;;;;;10008663;28;20026;-61
2022/03/17 04:41:27;;;;;;;27.70;16.23;;;10.30;95.80;;;;;;10004212;28;20558;-62
2022/03/17 04:46:18;;;;;;;30.42;15.82;;;10.40;95.80;;;;;;9996094;28;20149;-62
2022/03/17 04:51:08;;;;;;;29.13;14.02;;;10.40;95.60;;;;;;10001784;28;20073;-62
2022/03/17 04:56:05;;;;;;;28.13;14.82;;;10.40;95.70;;;;;;9986449;28;20096;-64
2022/03/17 05:00:57;;;;;;;33.47;15.98;;;10.40;95.60;;;;;;10011854;28;20026;-63
2022/03/17 05:05:49;;;;;;;34.15;15.73;;;10.30;95.70;;;;;;10006677;28;20037;-62
2022/03/17 05:10:44;;;;;;;33.03;17.77;;;10.30;95.80;;;;;;10001494;28;20457;-62
2022/03/17 05:15:36;;;;;;;33.50;16.70;;;10.30;95.80;;;;;;9995329;28;20386;-62
2022/03/17 05:20:26;;;;;;;31.88;15.93;;;10.30;95.80;;;;;;10009328;28;20054;-62
2022/03/17 05:25:18;;;;;;;29.27;14.93;;;10.20;95.90;;;;;;10007443;28;20066;-61
2022/03/17 05:30:13;;;;;;;29.45;14.13;;;10.20;95.90;;;;;;9997487;28;20153;-61
2022/03/17 05:35:04;;;;;;;33.28;15.80;;;10.20;95.80;;;;;;9999788;28;20030;-66
2022/03/17 05:39:55;;;;;;;26.52;13.38;;;10.10;95.90;;;;;;10004995;28;20499;-61
2022/03/17 05:44:46;;;;;;;30.92;16.10;;;10.10;96.00;;;;;;10004481;28;20042;-62
2022/03/17 05:49:36;;;;;;;29.10;15.02;;;10.00;96.10;;;;;;9988375;28;20034;-61
2022/03/17 05:54:27;;;;;;;31.38;16.23;;;9.90;96.20;;;;;;10004475;28;20056;-61
2022/03/17 05:59:18;;;;;;;29.77;13.40;;;10.00;96.10;;;;;;9993315;28;20041;-63
2022/03/17 06:04:08;;;;;;;28.27;14.38;;;10.20;95.90;;;;;;9998327;28;20037;-62
2022/03/17 06:08:59;;;;;;;31.60;15.32;;;10.10;95.90;;;;;;9994426;28;20026;-61
2022/03/17 06:13:50;;;;;;;30.13;15.15;;;10.10;96.00;;;;;;9988804;28;20088;-62
2022/03/17 06:18:41;;;;;;;32.63;15.57;;;10.10;96.00;;;;;;9991632;28;20077;-61
2022/03/17 06:23:32;;;;;;;30.40;15.70;;;10.20;96.00;;;;;;10010687;28;20053;-62
2022/03/17 06:28:22;;;;;;;31.42;16.08;;;10.30;95.90;;;;;;10004653;28;20504;-62
2022/03/17 06:33:14;;;;;;;25.02;13.93;;;10.30;95.90;;;;;;10017261;28;20029;-61
2022/03/17 06:38:06;;;;;;;34.35;16.25;;;10.40;95.90;;;;;;10006117;28;20026;-62
2022/03/17 06:42:57;;;;;;;35.92;15.85;;;10.30;96.00;;;;;;9995842;28;20029;-62
2022/03/17 06:47:48;;;;;;;29.33;15.68;;;10.40;96.10;;;;;;10000774;28;20045;-62
2022/03/17 06:52:39;;;;;;;37.55;17.02;;;10.40;96.10;;;;;;10017253;28;20665;-63
2022/03/17 06:57:30;;;;;;;28.77;15.15;;;10.50;96.10;;;;;;10004637;28;20030;-62
2022/03/17 07:02:21;;;;;;;29.95;15.20;;;10.60;96.00;;;;;;10007447;28;20022;-62
2022/03/17 07:07:12;;;;;;;31.52;15.23;;;10.50;96.10;;;;;;10014467;28;20136;-62
2022/03/17 07:12:04;;;;;;;32.75;16.17;;;10.40;96.00;;;;;;9996036;28;20084;-62
2022/03/17 07:16:55;;;;;;;31.88;15.10;;;10.40;96.20;;;;;;10000028;28;20852;-62
2022/03/17 07:21:46;;;;;;;33.40;16.30;;;10.60;96.10;;;;;;9997808;28;20061;-64
2022/03/17 07:26:37;;;;;;;27.50;15.23;;;10.70;96.10;;;;;;10009690;28;20060;-62
2022/03/17 07:31:27;;;;;;;32.78;16.17;;;10.70;95.90;;;;;;10010261;28;20029;-62
2022/03/17 07:36:19;;;;;;;32.05;16.60;;;10.70;95.80;;;;;;10017096;28;20042;-62
2022/03/17 07:41:09;;;;;;;32.92;16.88;;;10.70;95.90;;;;;;10010132;28;20424;-65
2022/03/17 07:46:00;;;;;;;38.03;16.55;;;10.80;95.90;;;;;;10007434;28;20038;-63
2022/03/17 07:50:51;;;;;;;32.03;15.02;;;10.80;95.90;;;;;;10005557;28;20033;-63
2022/03/17 07:55:42;;;;;;;32.28;16.85;;;10.90;95.90;;;;;;9996187;28;20033;-63
2022/03/17 08:00:33;;;;;;;28.33;16.17;;;10.90;95.80;;;;;;10003271;28;20108;-63
2022/03/17 08:05:23;;;;;;;31.83;15.57;;;10.80;95.80;;;;;;10010035;28;20516;-60
2022/03/17 08:10:15;;;;;;;36.05;16.17;;;10.90;95.80;;;;;;10009654;28;20195;-61
2022/03/17 08:15:06;;;;;;;32.55;16.08;;;11.10;95.80;;;;;;10014639;28;20097;-62
2022/03/17 08:19:57;;;;;;;37.33;16.80;;;11.30;95.80;;;;;;10020050;28;20033;-63
2022/03/17 08:24:48;;;;;;;33.72;16.52;;;11.40;95.70;;;;;;10028244;28;20041;-62
2022/03/17 08:29:40;;;;;;;34.15;16.13;;;11.50;95.80;;;;;;10028577;28;20028;-61
2022/03/17 08:34:32;;;;;;;28.67;16.60;;;11.50;95.70;;;;;;10010020;28;20022;-68
2022/03/17 08:39:24;;;;;;;33.05;16.65;;;11.60;95.70;;;;;;10014512;28;20080;-64
2022/03/17 08:44:15;;;;;;;26.67;14.15;;;11.60;95.70;;;;;;10013405;28;20563;-65
2022/03/17 08:49:24;;;;;;;31.38;16.15;;;11.60;95.80;;;;;;10000340;28;20767;-63
2022/03/17 08:54:15;;;;;;;25.52;15.73;;;11.70;95.80;;;;;;10006541;28;20112;-64
2022/03/17 08:59:06;;;;;;;26.92;14.90;;;12.00;95.60;;;;;;10018343;28;20084;-64
2022/03/17 09:03:57;;;;;;;28.45;14.85;;;12.10;95.40;;;;;;10029550;28;20040;-63
2022/03/17 09:08:48;;;;;;;28.90;15.23;;;12.40;95.30;;;;;;10035088;28;20044;-64
2022/03/17 09:13:40;;;;;;;30.85;16.67;;;12.40;95.20;;;;;;10024517;28;20396;-65
2022/03/17 09:18:31;;;;;;;26.77;14.38;;;12.60;95.10;;;;;;10003169;28;20116;-63
2022/03/17 09:23:21;;;;;;;31.48;16.88;;;12.80;94.70;;;;;;10017319;28;20023;-63
2022/03/17 09:28:14;;;;;;;31.55;15.80;;;12.70;94.80;;;;;;10006767;28;20053;-64
2022/03/17 09:33:06;;;;;;;30.35;16.27;;;12.70;94.80;;;;;;10010773;28;20088;-63
2022/03/17 09:37:57;;;;;;;30.75;16.65;;;12.80;94.60;;;;;;10007277;28;20077;-64
2022/03/17 09:42:48;;;;;;;33.90;17.20;;;12.60;94.60;;;;;;10007587;28;20037;-62
2022/03/17 09:47:40;;;;;;;29.35;17.27;;;12.60;94.80;;;;;;10007587;28;20044;-63
2022/03/17 09:52:32;;;;;;;37.58;19.15;;;12.70;94.70;;;;;;10004108;28;20369;-63
2022/03/17 09:57:23;;;;;;;28.83;16.50;;;12.90;94.50;;;;;;10010391;28;20034;-64
2022/03/17 10:02:18;;;;;;;33.15;18.10;;;13.00;94.50;;;;;;10006483;28;20030;-66
2022/03/17 10:07:09;;;;;;;33.70;17.43;;;13.10;94.20;;;;;;10008504;28;20410;-64
2022/03/17 10:12:01;;;;;;;26.15;16.38;;;13.00;94.40;;;;;;10003773;28;20131;-64
2022/03/17 10:16:52;;;;;;;28.80;16.92;;;13.00;94.40;;;;;;10002399;28;20520;-66
2022/03/17 10:21:43;;;;;;;24.60;14.40;;;13.20;94.10;;;;;;10008013;28;20075;-63
2022/03/17 10:26:46;;;;;;;26.15;15.38;;;13.10;93.90;;;;;;9989853;28;20046;-64
2022/03/17 10:32:01;;;;;;;26.67;15.23;;;13.20;94.10;;;;;;10003381;28;20137;-65
2022/03/17 10:37:02;;;;;;;23.63;14.45;;;13.50;93.80;;;;;;10006399;28;20049;-67
2022/03/17 10:41:53;;;;;;;21.63;16.27;;;13.40;93.80;;;;;;9994195;28;20045;-65
2022/03/17 10:47:01;;;;;;;26.75;14.82;;;13.30;93.50;;;;;;10009548;28;20496;-68
2022/03/17 10:51:54;;;;;;;23.35;13.75;;;13.60;93.40;;;;;;10010285;28;20117;-64
2022/03/17 10:57:04;;;;;;;28.05;15.50;;;13.70;93.20;;;;;;10007570;28;20136;-65
2022/03/17 11:01:55;;;;;;;21.42;14.18;;;13.90;93.10;;;;;;10009416;28;20058;-63
2022/03/17 11:06:45;;;;;;;24.92;14.38;;;14.40;92.60;;;;;;10011205;28;20045;-63
2022/03/17 11:11:37;;;;;;;22.58;14.13;;;14.50;92.80;;;;;;10003953;28;20041;-64
2022/03/17 11:16:43;;;;;;;22.90;14.38;;;14.60;92.60;;;;;;10002451;28;20046;-63
2022/03/17 11:21:34;;;;;;;26.10;15.57;;;14.40;92.50;;;;;;10014852;28;20065;-63
2022/03/17 11:26:34;;;;;;;23.25;14.77;;;14.70;92.70;;;;;;9991120;28;20034;-64
2022/03/17 11:31:27;;;;;;;23.55;14.88;;;14.80;92.20;;;;;;10013591;28;20033;-62
2022/03/17 11:36:24;;;;;;;25.45;15.10;;;14.70;92.20;;;;;;10020248;28;20033;-63
2022/03/17 11:41:17;;;;;;;27.45;15.60;;;14.80;92.30;;;;;;10014312;28;20141;-66
2022/03/17 11:46:16;;;;;;;26.15;15.77;;;14.60;92.00;;;;;;10012465;28;20022;-65
2022/03/17 11:51:08;;;;;;;23.38;15.50;;;14.30;92.30;;;;;;9987642;28;20049;-64
2022/03/17 11:56:00;;;;;;;26.05;14.68;;;14.50;92.20;;;;;;9994986;28;20542;-65
2022/03/17 12:01:00;;;;;;;30.65;14.88;;;14.30;92.00;;;;;;10014572;28;20030;-64
2022/03/17 12:06:10;;;;;;;24.85;15.43;;;14.20;92.10;;;;;;10010986;28;20032;-64
2022/03/17 12:11:13;;;;;;;26.65;14.55;;;14.20;92.00;;;;;;10014541;28;20463;-66
2022/03/17 12:16:05;;;;;;;24.95;14.10;;;14.20;91.90;;;;;;10002496;28;20045;-63
2022/03/17 12:20:57;;;;;;;26.17;14.75;;;14.10;92.00;;;;;;10011287;28;20156;-64
2022/03/17 12:26:03;;;;;;;24.98;13.60;;;14.00;92.00;;;;;;10013334;28;20508;-63
2022/03/17 12:30:55;;;;;;;25.65;13.57;;;14.10;91.80;;;;;;9995998;28;20033;-64
2022/03/17 12:35:48;;;;;;;24.38;14.93;;;14.10;91.80;;;;;;10012559;28;20562;-66
2022/03/17 12:40:44;;;;;;;28.25;14.23;;;14.00;91.80;;;;;;10007757;28;20030;-65
2022/03/17 12:45:37;;;;;;;26.83;14.80;;;14.00;91.90;;;;;;10005745;28;20121;-63
2022/03/17 12:50:29;;;;;;;24.88;14.18;;;14.00;91.80;;;;;;9994878;28;20030;-64
2022/03/17 12:55:21;;;;;;;25.73;14.98;;;14.10;91.90;;;;;;9999974;28;20485;-64
2022/03/17 13:00:15;;;;;;;24.55;14.95;;;14.00;91.90;;;;;;10009794;28;20479;-64
2022/03/17 13:10:25;;;;;;;25.17;14.80;;;13.80;92.00;;;;;;10010691;28;20543;-66
2022/03/17 13:15:21;;;;;;;27.05;14.45;;;13.80;92.00;;;;;;10002408;28;20148;-63
2022/03/17 13:20:15;;;;;;;21.85;13.00;;;13.70;92.00;;;;;;10006260;28;20466;-64
2022/03/17 13:25:11;;;;;;;22.33;14.40;;;13.70;92.20;;;;;;9992947;28;20072;-65
2022/03/17 13:30:07;;;;;;;21.88;13.15;;;13.70;91.90;;;;;;10005572;28;20022;-64
2022/03/17 13:35:00;;;;;;;27.88;14.88;;;13.50;91.90;;;;;;10007867;28;20149;-65
2022/03/17 13:40:02;;;;;;;28.05;14.30;;;13.50;92.00;;;;;;10004855;28;20129;-64
2022/03/17 13:44:55;;;;;;;24.15;14.95;;;13.50;91.90;;;;;;10004350;28;20030;-66
2022/03/17 13:50:11;;;;;;;29.45;14.65;;;13.40;91.80;;;;;;9997581;28;20108;-66
2022/03/17 13:55:06;;;;;;;24.20;12.73;;;13.40;91.70;;;;;;10002709;28;20478;-64
2022/03/17 13:59:57;;;;;;;25.92;14.70;;;13.30;91.80;;;;;;10008434;28;20057;-63
2022/03/17 14:04:55;;;;;;;24.08;12.65;;;13.20;92.00;;;;;;10002955;28;20354;-63
2022/03/17 14:09:46;;;;;;;23.83;13.77;;;13.20;91.70;;;;;;9999924;28;20140;-64
2022/03/17 14:14:36;;;;;;;28.38;15.60;;;13.20;91.70;;;;;;10006860;28;20622;-64
2022/03/17 14:19:27;;;;;;;27.80;14.63;;;13.30;91.60;;;;;;10005957;28;20041;-66
2022/03/17 14:24:19;;;;;;;27.40;15.40;;;13.20;91.60;;;;;;9984888;28;20034;-65
2022/03/17 14:29:13;;;;;;;25.17;13.23;;;13.10;91.60;;;;;;9988699;28;20045;-66
2022/03/17 14:34:05;;;;;;;32.08;15.60;;;13.00;91.50;;;;;;10000702;28;20101;-64
2022/03/17 14:38:56;;;;;;;30.92;14.93;;;12.90;91.40;;;;;;10007683;28;20130;-63
2022/03/17 14:43:52;;;;;;;29.08;15.48;;;12.90;91.30;;;;;;10013384;28;20022;-68
2022/03/17 14:48:43;;;;;;;31.67;14.27;;;12.70;91.20;;;;;;10015733;28;20042;-60
2022/03/17 14:53:34;;;;;;;27.20;14.77;;;12.70;91.10;;;;;;10012454;28;20022;-63
2022/03/17 14:58:25;;;;;;;25.85;15.20;;;12.70;91.10;;;;;;10017888;28;20026;-64
2022/03/17 15:03:16;;;;;;;33.58;15.10;;;12.70;91.00;;;;;;10016783;28;20033;-64
2022/03/17 15:08:07;;;;;;;26.25;12.00;;;12.70;90.90;;;;;;10013664;28;20393;-64
2022/03/17 15:12:58;;;;;;;27.92;13.27;;;12.60;91.00;;;;;;10013444;28;20109;-62
2022/03/17 15:17:49;;;;;;;21.88;12.23;;;12.40;91.00;;;;;;10023298;28;20057;-64
2022/03/17 15:22:40;;;;;;;22.33;11.77;;;12.40;91.00;;;;;;10029526;28;20025;-62
2022/03/17 15:32:42;;;;;;;24.98;12.73;;;12.30;91.00;;;;;;10027828;28;20560;-63
2022/03/17 15:37:33;;;;;;;23.02;11.13;;;12.30;91.20;;;;;;10023708;28;20061;-63
2022/03/17 15:42:26;;;;;;;19.48;10.98;;;12.20;91.20;;;;;;10012067;28;20065;-61
2022/03/17 15:47:17;;;;;;;20.25;11.77;;;12.10;91.30;;;;;;10029181;28;20046;-60
2022/03/17 15:52:08;;;;;;;21.05;11.18;;;12.00;91.40;;;;;;10028958;28;20227;-64
2022/03/17 15:56:58;;;;;;;19.48;9.43;;;12.00;91.50;;;;;;10035906;28;20033;-61
2022/03/17 16:01:49;;;;;;;16.65;8.82;;;11.80;91.80;;;;;;10032631;28;20022;-61
2022/03/17 16:06:40;;;;;;;14.68;8.32;;;11.70;91.80;;;;;;10025013;28;20069;-64
2022/03/17 16:16:40;;;;;;;12.23;7.20;;;11.80;91.80;;;;;;10031135;28;20099;-63
2022/03/17 16:21:32;;;;;;;11.38;5.88;;;11.60;92.00;;;;;;10025754;28;20040;-63
2022/03/17 16:26:26;;;;;;;10.27;5.70;;;11.50;92.10;;;;;;10003049;28;20056;-64
2022/03/17 16:31:18;;;;;;;10.95;6.32;;;11.50;92.10;;;;;;9999610;28;20038;-62
2022/03/17 16:36:09;;;;;;;11.57;6.85;;;11.50;92.10;;;;;;10003269;28;20076;-63
2022/03/17 16:41:00;;;;;;;11.45;6.40;;;11.50;92.10;;;;;;10001276;28;20030;-64
2022/03/17 16:45:51;;;;;;;11.23;6.50;;;11.40;92.10;;;;;;9991699;28;20040;-63
2022/03/17 16:50:42;;;;;;;11.40;5.88;;;11.50;92.10;;;;;;10000247;28;20481;-65
2022/03/17 16:55:33;;;;;;;12.32;6.18;;;11.40;92.10;;;;;;9998058;28;20033;-62
2022/03/17 17:00:25;;;;;;;11.18;6.13;;;11.30;92.10;;;;;;9999317;28;20034;-64
2022/03/17 17:05:16;;;;;;;11.45;5.68;;;11.30;92.20;;;;;;10018822;28;20045;-60
2022/03/17 17:10:07;;;;;;;12.27;6.45;;;11.30;92.20;;;;;;10031051;28;20017;-63
2022/03/17 17:14:58;;;;;;;8.75;5.53;;;11.30;92.20;;;;;;10022164;28;20057;-62
2022/03/17 17:19:49;;;;;;;10.60;5.40;;;11.30;92.10;;;;;;10025945;28;20030;-61
2022/03/17 17:34:58;;;;;;;9.20;4.72;;;11.10;92.30;;;;;;10020773;28;20084;-62
2022/03/17 17:39:49;;;;;;;14.43;5.65;;;11.10;92.40;;;;;;10023580;28;20448;-62
2022/03/17 17:44:40;;;;;;;9.15;5.28;;;11.10;92.40;;;;;;10016971;28;20020;-62
2022/03/17 17:49:31;;;;;;;8.65;4.72;;;11.00;92.50;;;;;;10009592;28;20030;-58
2022/03/17 17:54:22;;;;;;;9.60;5.68;;;10.90;92.60;;;;;;10029979;28;20101;-59
2022/03/17 17:59:12;;;;;;;9.60;5.10;;;10.90;92.70;;;;;;10007447;28;20026;-65
2022/03/17 18:04:03;;;;;;;12.48;5.30;;;10.70;92.80;;;;;;10014319;28;20026;-68
2022/03/17 18:08:54;;;;;;;12.45;6.70;;;10.70;92.90;;;;;;10015750;28;20048;-67
2022/03/17 18:13:46;;;;;;;10.55;6.68;;;10.60;93.00;;;;;;10003478;28;20392;-67
2022/03/17 18:18:37;;;;;;;14.50;6.90;;;10.50;93.10;;;;;;10019418;28;20038;-66
2022/03/17 18:23:28;;;;;;;9.02;5.45;;;10.40;93.20;;;;;;10025498;28;20021;-66
2022/03/17 18:28:18;;;;;;;13.65;6.90;;;10.40;93.30;;;;;;10016826;28;20474;-66
2022/03/17 18:33:09;;;;;;;11.75;6.45;;;10.30;93.50;;;;;;10019387;28;20034;-64
2022/03/17 18:38:05;;;;;;;12.85;6.03;;;10.20;93.70;;;;;;10021021;28;20025;-65
2022/03/17 18:42:55;;;;;;;14.40;6.60;;;10.20;93.70;;;;;;10019144;28;20143;-66
2022/03/17 18:47:46;;;;;;;12.25;6.28;;;10.10;93.90;;;;;;9999986;28;20038;-63
2022/03/17 18:52:37;;;;;;;14.32;6.75;;;10.00;94.10;;;;;;9994637;28;20492;-64
2022/03/17 18:57:28;;;;;;;10.88;5.55;;;10.00;94.00;;;;;;10006578;28;20471;-66
2022/03/17 19:02:19;;;;;;;12.57;5.30;;;10.00;94.10;;;;;;10007641;28;20034;-66
2022/03/17 19:07:10;;;;;;;11.63;6.68;;;10.10;93.90;;;;;;10026485;28;20129;-63
2022/03/17 19:12:01;;;;;;;11.48;6.18;;;10.00;94.10;;;;;;10014890;28;20507;-64
2022/03/17 19:16:51;;;;;;;9.73;5.15;;;10.00;94.20;;;;;;10018029;28;20571;-63
2022/03/17 19:21:43;;;;;;;10.82;5.32;;;9.90;94.20;;;;;;10025346;28;20029;-69
2022/03/17 19:26:34;;;;;;;9.70;5.70;;;9.90;94.20;;;;;;10016497;28;20060;-66
2022/03/17 19:31:25;;;;;;;12.18;5.13;;;10.00;94.10;;;;;;10015839;28;20437;-68
2022/03/17 19:36:15;;;;;;;10.40;5.22;;;9.90;94.10;;;;;;10016054;28;20083;-66
2022/03/17 19:41:09;;;;;;;9.27;5.28;;;9.90;94.20;;;;;;10015784;28;20026;-66
2022/03/17 19:46:03;;;;;;;13.98;6.05;;;9.80;94.30;;;;;;10015115;28;20670;-65
2022/03/17 19:50:53;;;;;;;10.52;4.93;;;9.70;94.30;;;;;;10016112;28;20052;-65
2022/03/17 19:55:44;;;;;;;11.73;5.50;;;9.70;94.40;;;;;;10006782;28;20112;-64
2022/03/17 20:00:35;;;;;;;11.65;5.63;;;9.60;94.40;;;;;;10015143;28;20029;-63
2022/03/17 20:05:25;;;;;;;14.27;5.80;;;9.60;94.30;;;;;;10016785;28;20050;-64
2022/03/17 20:10:16;;;;;;;15.30;6.80;;;9.70;94.30;;;;;;10010008;28;20030;-65
2022/03/17 20:15:07;;;;;;;11.18;5.88;;;9.70;94.20;;;;;;10001779;28;20060;-65
2022/03/17 20:19:58;;;;;;;16.50;5.68;;;9.60;94.10;;;;;;10030578;28;20340;-67
2022/03/17 20:24:49;;;;;;;12.75;6.00;;;9.60;94.10;;;;;;10035530;28;20113;-64
2022/03/17 20:29:39;;;;;;;10.95;6.18;;;9.60;94.10;;;;;;10026619;28;20037;-65
2022/03/17 20:34:31;;;;;;;14.25;6.43;;;9.50;94.30;;;;;;10023408;28;20017;-67
2022/03/17 20:39:22;;;;;;;16.52;6.38;;;9.50;94.40;;;;;;10015018;28;20073;-63
2022/03/17 20:44:12;;;;;;;13.00;5.85;;;9.40;94.60;;;;;;10025488;28;20025;-62
2022/03/17 20:49:03;;;;;;;11.45;5.97;;;9.30;94.70;;;;;;10024080;28;20084;-64
2022/03/17 20:53:54;;;;;;;11.48;6.82;;;9.30;94.70;;;;;;10030948;28;20025;-63
2022/03/17 20:58:45;;;;;;;9.98;5.80;;;9.40;94.60;;;;;;10037329;28;20068;-63
2022/03/17 21:03:48;;;;;;;12.90;5.50;;;9.40;94.60;;;;;;10212587;27;20116;-63
2022/03/17 21:08:39;;;;;;;10.75;5.65;;;9.40;94.50;;;;;;10205909;28;20023;-63
2022/03/17 21:13:30;;;;;;;12.40;6.30;;;9.50;94.50;;;;;;10207499;28;20043;-62
2022/03/17 21:18:21;;;;;;;11.93;5.68;;;9.50;94.50;;;;;;10188253;28;20106;-63
2022/03/17 21:23:12;;;;;;;10.20;6.30;;;9.40;94.60;;;;;;10206028;28;20050;-65
2022/03/17 21:28:03;;;;;;;14.70;6.38;;;9.40;94.50;;;;;;10206413;28;20397;-62
2022/03/17 21:32:54;;;;;;;11.85;6.13;;;9.50;94.50;;;;;;10206287;28;20107;-63
2022/03/17 21:37:45;;;;;;;11.70;6.75;;;9.50;94.50;;;;;;10206376;28;20020;-63
2022/03/17 21:42:36;;;;;;;12.90;6.68;;;9.60;94.30;;;;;;10206444;28;20040;-62
2022/03/17 21:47:26;;;;;;;10.80;5.70;;;9.60;94.30;;;;;;10206003;28;20319;-62
2022/03/17 21:52:17;;;;;;;9.95;6.03;;;9.60;94.30;;;;;;10204499;28;20148;-64
2022/03/17 21:57:29;;;;;;;15.25;5.50;;;9.60;94.30;;;;;;10205471;28;20026;-63
2022/03/17 22:02:19;;;;;;;10.57;5.43;;;9.60;94.20;;;;;;10198202;28;20196;-63
2022/03/17 22:07:11;;;;;;;12.65;5.53;;;9.60;94.20;;;;;;10215705;28;20111;-62
2022/03/17 22:12:03;;;;;;;9.82;5.82;;;9.60;94.20;;;;;;10195817;28;20053;-62
2022/03/17 22:16:55;;;;;;;13.18;6.03;;;9.60;94.20;;;;;;10177571;28;20109;-60
2022/03/17 22:21:46;;;;;;;12.77;6.05;;;9.60;94.20;;;;;;10178293;28;20111;-62
2022/03/17 22:26:36;;;;;;;10.00;4.93;;;9.60;94.10;;;;;;10177907;28;20107;-62
2022/03/17 22:31:27;;;;;;;13.45;5.45;;;9.60;94.10;;;;;;10170129;28;20081;-63
2022/03/17 22:36:18;;;;;;;10.70;5.22;;;9.60;94.00;;;;;;10176927;28;20028;-63
2022/03/17 22:46:19;;;;;;;9.07;4.50;;;9.50;93.90;;;;;;10172901;28;20100;-66
2022/03/17 22:51:10;;;;;;;8.98;4.68;;;9.60;93.80;;;;;;10157519;28;20028;-68
2022/03/17 22:56:01;;;;;;;9.77;5.03;;;9.50;93.70;;;;;;10174905;28;20039;-62
2022/03/17 23:00:52;;;;;;;8.73;4.40;;;9.50;93.80;;;;;;10175216;28;20054;-64
2022/03/17 23:05:47;;;;;;;6.47;4.22;;;9.60;93.60;;;;;;10172133;28;20539;-63
2022/03/17 23:10:40;;;;;;;8.73;4.72;;;9.60;93.50;;;;;;10171623;28;20577;-63
2022/03/17 23:15:31;;;;;;;9.00;4.13;;;9.60;93.40;;;;;;10172931;28;20076;-62
2022/03/17 23:20:22;;;;;;;7.93;4.05;;;9.60;93.30;;;;;;10171948;28;20084;-63
2022/03/17 23:25:13;;;;;;;7.72;4.20;;;9.50;93.20;;;;;;10173967;28;20123;-65
2022/03/17 23:30:05;;;;;;;10.05;4.35;;;9.50;93.20;;;;;;10170981;28;20375;-64
2022/03/17 23:34:57;;;;;;;6.97;4.93;;;9.50;93.20;;;;;;10175123;28;20043;-63
2022/03/17 23:39:48;;;;;;;6.80;4.00;;;9.50;93.10;;;;;;10174890;28;20116;-62
2022/03/17 23:44:38;;;;;;;5.63;3.70;;;9.40;93.10;;;;;;10174778;28;20407;-63
2022/03/17 23:49:29;;;;;;;7.72;3.95;;;9.40;93.10;;;;;;10172176;28;20040;-62
2022/03/17 23:54:20;;;;;;;6.13;3.40;;;9.40;92.90;;;;;;10149315;28;20233;-62
2022/03/17 23:59:10;;;;;;;9.10;3.75;;;9.40;92.80;;;;;;10163782;28;20112;-62
